createdAt,value
2022-11-03T00:00:43.417Z,96.60
2022-11-03T00:03:30.367Z,96.60
2022-11-03T00:06:10.426Z,96.60
2022-11-03T00:08:57.338Z,96.60
2022-11-03T00:11:43.388Z,96.60
2022-11-03T00:14:30.402Z,96.60
2022-11-03T00:17:10.448Z,96.60
2022-11-03T00:19:57.369Z,96.60
2022-11-03T00:22:45.428Z,96.60
2022-11-03T00:25:25.393Z,96.60
2022-11-03T00:28:05.892Z,96.60
2022-11-03T00:30:53.384Z,96.60
2022-11-03T00:33:41.430Z,96.60
2022-11-03T00:36:24.415Z,96.60
2022-11-03T00:39:05.589Z,96.60
2022-11-03T00:41:53.363Z,96.60
2022-11-03T00:44:33.987Z,96.60
2022-11-03T00:47:23.361Z,96.60
2022-11-03T00:50:11.530Z,96.60
2022-11-03T00:52:51.424Z,96.60
2022-11-03T00:55:38.399Z,96.60
2022-11-03T00:58:20.556Z,96.60
2022-11-03T01:01:14.535Z,96.60
2022-11-03T01:04:22.501Z,96.60
2022-11-03T01:07:04.332Z,96.60
2022-11-03T01:09:53.443Z,96.60
2022-11-03T01:12:34.013Z,96.60
2022-11-03T01:15:20.785Z,96.60
2022-11-03T01:18:07.528Z,96.60
2022-11-03T01:20:47.484Z,96.60
2022-11-03T01:23:34.562Z,96.60
2022-11-03T01:26:16.492Z,96.60
2022-11-03T01:29:05.608Z,96.60
2022-11-03T01:31:45.481Z,96.60
2022-11-03T01:34:32.481Z,96.60
2022-11-03T01:37:12.592Z,96.60
2022-11-03T01:39:59.484Z,96.60
2022-11-03T01:42:39.542Z,96.60
2022-11-03T01:45:27.500Z,96.60
2022-11-03T01:48:15.558Z,96.60
2022-11-03T01:51:02.530Z,96.60
2022-11-03T01:53:47.573Z,96.60
2022-11-03T01:56:38.543Z,96.60
2022-11-03T01:59:19.608Z,96.60
2022-11-03T02:02:06.679Z,96.60
2022-11-03T02:04:47.621Z,96.60
2022-11-03T02:08:02.570Z,96.60
2022-11-03T02:10:43.649Z,96.60
2022-11-03T02:13:33.546Z,96.60
2022-11-03T02:16:16.675Z,96.60
2022-11-03T02:19:07.589Z,96.60
2022-11-03T02:22:14.571Z,96.60
2022-11-03T02:25:14.813Z,96.60
2022-11-03T02:28:02.600Z,96.60
2022-11-03T02:31:10.103Z,96.60
2022-11-03T02:34:03.596Z,96.60
2022-11-03T02:36:53.841Z,96.60
2022-11-03T02:39:49.637Z,96.60
2022-11-03T02:42:31.718Z,96.60
2022-11-03T02:45:22.573Z,96.60
2022-11-03T02:48:11.697Z,96.60
2022-11-03T02:50:53.595Z,96.60
2022-11-03T02:53:46.644Z,96.60
2022-11-03T02:56:29.729Z,96.60
2022-11-03T02:59:23.613Z,96.60
2022-11-03T03:02:21.761Z,96.60
2022-11-03T03:05:12.622Z,96.60
2022-11-03T03:07:55.697Z,96.60
2022-11-03T03:10:46.653Z,96.60
2022-11-03T03:13:28.744Z,96.60
2022-11-03T03:16:23.688Z,96.60
2022-11-03T03:19:27.742Z,96.60
2022-11-03T03:25:30.712Z,96.60
2022-11-03T03:28:22.736Z,96.60
2022-11-03T03:31:06.153Z,96.60
2022-11-03T03:34:04.318Z,96.60
2022-11-03T03:36:49.709Z,96.60
2022-11-03T03:39:40.692Z,96.60
2022-11-03T03:42:22.585Z,96.60
2022-11-03T03:45:10.715Z,96.60
2022-11-03T03:47:54.895Z,96.60
2022-11-03T03:50:45.882Z,96.60
2022-11-03T03:53:33.741Z,96.60
2022-11-03T03:56:20.756Z,96.60
2022-11-03T03:59:00.744Z,96.60
2022-11-03T04:01:47.972Z,96.60
2022-11-03T04:04:27.753Z,96.60
2022-11-03T04:07:39.303Z,96.60
2022-11-03T04:10:26.773Z,96.60
2022-11-03T04:13:33.728Z,96.60
2022-11-03T04:16:34.573Z,96.60
2022-11-03T04:19:39.787Z,96.60
2022-11-03T04:22:21.355Z,96.60
2022-11-03T04:25:07.753Z,96.60
2022-11-03T04:27:47.840Z,96.60
2022-11-03T04:30:42.967Z,96.60
2022-11-03T04:33:27.862Z,96.60
2022-11-03T04:39:26.833Z,96.60
2022-11-03T04:42:41.800Z,96.60
2022-11-03T04:45:38.289Z,96.60
2022-11-03T04:48:28.941Z,96.60
2022-11-03T04:51:21.836Z,96.60
2022-11-03T04:54:19.836Z,96.60
2022-11-03T04:56:59.848Z,96.60
2022-11-03T04:59:49.943Z,96.60
2022-11-03T05:02:29.906Z,96.60
2022-11-03T05:05:28.869Z,96.60
2022-11-03T05:08:08.947Z,96.60
2022-11-03T05:10:56.029Z,96.60
2022-11-03T05:13:35.880Z,96.60
2022-11-03T05:16:22.864Z,96.60
2022-11-03T05:19:02.907Z,96.60
2022-11-03T05:21:56.883Z,96.60
2022-11-03T05:24:43.979Z,96.60
2022-11-03T05:27:28.090Z,96.60
2022-11-03T05:30:21.842Z,96.60
2022-11-03T05:33:01.919Z,96.60
2022-11-03T05:35:48.880Z,96.60
2022-11-03T05:38:29.974Z,96.60
2022-11-03T05:41:36.885Z,96.60
2022-11-03T05:44:43.980Z,96.60
2022-11-03T05:47:37.929Z,96.60
2022-11-03T05:50:28.026Z,96.60
2022-11-03T05:53:36.965Z,96.60
2022-11-03T05:56:25.038Z,96.60
2022-11-03T05:59:13.896Z,96.60
2022-11-03T06:01:54.194Z,96.60
2022-11-03T06:04:46.962Z,96.60
2022-11-03T06:07:32.966Z,96.60
2022-11-03T06:10:39.128Z,96.60
2022-11-03T06:13:24.974Z,96.60
2022-11-03T06:16:36.000Z,96.60
2022-11-03T06:19:29.072Z,96.60
2022-11-03T06:22:32.946Z,96.60
2022-11-03T06:25:23.017Z,96.60
2022-11-03T06:28:07.948Z,96.60
2022-11-03T06:30:50.076Z,96.60
2022-11-03T06:33:48.941Z,96.60
2022-11-03T06:36:35.164Z,96.60
2022-11-03T06:39:37.071Z,96.60
2022-11-03T06:42:31.743Z,96.60
2022-11-03T06:45:32.018Z,96.60
2022-11-03T06:48:22.048Z,96.60
2022-11-03T06:51:05.044Z,96.60
2022-11-03T06:53:52.069Z,96.60
2022-11-03T06:56:38.064Z,96.60
2022-11-03T06:59:26.172Z,96.60
2022-11-03T07:02:07.108Z,96.60
2022-11-03T07:04:54.146Z,96.60
2022-11-03T07:07:34.049Z,96.60
2022-11-03T07:10:15.122Z,96.60
2022-11-03T07:13:06.944Z,96.60
2022-11-03T07:15:54.287Z,96.60
2022-11-03T07:18:49.167Z,96.60
2022-11-03T07:22:00.071Z,96.60
2022-11-03T07:24:51.068Z,96.60
2022-11-03T07:27:37.179Z,96.60
2022-11-03T07:30:26.081Z,96.60
2022-11-03T07:33:21.267Z,96.60
2022-11-03T07:36:15.468Z,96.60
2022-11-03T07:38:59.156Z,96.60
2022-11-03T07:41:46.138Z,96.60
2022-11-03T07:44:27.184Z,96.60
2022-11-03T07:47:20.079Z,96.00
2022-11-03T07:50:02.242Z,95.50
2022-11-03T07:52:50.141Z,95.00
2022-11-03T07:55:30.202Z,92.20
2022-11-03T07:58:35.138Z,89.50
2022-11-03T08:01:27.262Z,88.30
2022-11-03T08:04:39.156Z,87.10
2022-11-03T08:07:19.202Z,86.90
2022-11-03T08:10:06.169Z,85.00
2022-11-03T08:12:46.260Z,86.80
2022-11-03T08:15:33.132Z,86.00
2022-11-03T08:18:20.159Z,86.20
2022-11-03T08:21:07.305Z,86.50
2022-11-03T08:23:54.138Z,86.10
2022-11-03T08:26:41.141Z,86.00
2022-11-03T08:29:28.433Z,86.10
2022-11-03T08:32:08.187Z,86.20
2022-11-03T08:34:55.238Z,86.50
2022-11-03T08:37:35.211Z,86.90
2022-11-03T08:40:15.956Z,86.80
2022-11-03T08:43:02.173Z,87.50
2022-11-03T08:45:42.683Z,87.20
2022-11-03T08:48:29.251Z,86.90
2022-11-03T08:51:13.171Z,86.20
2022-11-03T08:54:00.259Z,86.00
2022-11-03T08:56:48.852Z,85.50
2022-11-03T08:59:28.248Z,85.70
2022-11-03T09:02:15.304Z,85.90
2022-11-03T09:04:55.272Z,85.70
2022-11-03T09:10:42.834Z,83.40
2022-11-03T09:13:22.784Z,82.50
2022-11-03T09:16:09.274Z,82.90
2022-11-03T09:18:49.865Z,83.00
2022-11-03T09:21:36.393Z,82.80
2022-11-03T09:24:23.366Z,81.70
2022-11-03T09:27:03.351Z,81.80
2022-11-03T09:30:11.711Z,81.00
2022-11-03T09:32:50.272Z,81.20
2022-11-03T09:35:37.380Z,79.50
2022-11-03T09:38:17.329Z,79.70
2022-11-03T09:41:09.746Z,79.30
2022-11-03T09:44:01.293Z,77.60
2022-11-03T09:46:41.992Z,75.80
2022-11-03T09:49:29.481Z,76.20
2022-11-03T09:52:15.593Z,76.60
2022-11-03T09:55:04.355Z,75.60
2022-11-03T09:57:53.397Z,75.90
2022-11-03T10:00:35.285Z,75.20
2022-11-03T10:03:17.913Z,75.40
2022-11-03T10:06:04.369Z,73.80
2022-11-03T10:08:54.482Z,74.20
2022-11-03T10:11:34.372Z,72.20
2022-11-03T10:14:23.332Z,71.40
2022-11-03T10:17:06.403Z,70.80
2022-11-03T10:19:59.380Z,69.60
2022-11-03T10:22:47.495Z,68.20
2022-11-03T10:25:39.448Z,69.00
2022-11-03T10:28:23.813Z,70.20
2022-11-03T10:31:13.729Z,69.90
2022-11-03T10:33:55.474Z,68.40
2022-11-03T10:36:48.121Z,69.20
2022-11-03T10:39:37.594Z,70.10
2022-11-03T10:42:43.385Z,69.90
2022-11-03T10:45:24.594Z,70.20
2022-11-03T10:48:18.427Z,71.70
2022-11-03T10:50:58.962Z,71.90
2022-11-03T10:53:45.420Z,72.10
2022-11-03T10:56:26.747Z,73.40
2022-11-03T10:59:15.408Z,73.10
2022-11-03T11:02:03.892Z,72.30
2022-11-03T11:04:43.470Z,73.10
2022-11-03T11:07:33.794Z,72.70
2022-11-03T11:10:27.463Z,73.20
2022-11-03T11:13:23.676Z,72.80
2022-11-03T11:16:06.516Z,73.80
2022-11-03T11:18:53.514Z,73.30
2022-11-03T11:21:35.731Z,73.90
2022-11-03T11:24:51.517Z,74.00
2022-11-03T11:27:46.468Z,74.10
2022-11-03T11:30:37.565Z,75.20
2022-11-03T11:33:29.458Z,74.50
2022-11-03T11:36:28.634Z,74.70
2022-11-03T11:39:10.531Z,74.20
2022-11-03T11:42:23.573Z,74.70
2022-11-03T11:45:05.639Z,74.80
2022-11-03T11:47:56.499Z,74.90
2022-11-03T11:50:44.527Z,75.30
2022-11-03T11:53:33.609Z,75.90
2022-11-03T11:56:20.488Z,75.40
2022-11-03T11:59:01.141Z,75.60
2022-11-03T12:01:50.631Z,75.30
2022-11-03T12:04:37.558Z,75.00
2022-11-03T12:07:20.569Z,75.30
2022-11-03T12:10:27.664Z,75.70
2022-11-03T12:13:08.508Z,75.60
2022-11-03T12:16:03.697Z,75.70
2022-11-03T12:18:50.542Z,75.80
2022-11-03T12:21:56.630Z,76.50
2022-11-03T12:24:44.584Z,76.60
2022-11-03T12:27:34.054Z,76.70
2022-11-03T12:30:25.554Z,76.70
2022-11-03T12:33:05.967Z,77.50
2022-11-03T12:35:52.623Z,77.90
2022-11-03T12:38:32.672Z,77.60
2022-11-03T12:41:28.652Z,77.00
2022-11-03T12:44:08.781Z,76.80
2022-11-03T12:46:55.568Z,77.00
2022-11-03T12:49:42.626Z,76.90
2022-11-03T12:52:29.623Z,76.60
2022-11-03T12:55:09.784Z,77.00
2022-11-03T12:57:56.653Z,76.80
2022-11-03T13:00:37.747Z,76.70
2022-11-03T13:03:24.651Z,77.10
2022-11-03T13:06:16.638Z,77.50
2022-11-03T13:08:57.118Z,77.40
2022-11-03T13:12:01.637Z,77.30
2022-11-03T13:14:45.924Z,77.50
2022-11-03T13:17:51.998Z,78.50
2022-11-03T13:20:35.887Z,78.60
2022-11-03T13:23:23.122Z,79.20
2022-11-03T13:26:03.369Z,78.60
2022-11-03T13:28:49.670Z,79.00
2022-11-03T13:31:31.262Z,79.30
2022-11-03T13:34:17.697Z,79.40
2022-11-03T13:36:58.728Z,79.90
2022-11-03T13:39:45.748Z,80.00
2022-11-03T13:42:32.777Z,79.80
2022-11-03T13:45:13.728Z,79.90
2022-11-03T13:48:48.482Z,80.10
2022-11-03T13:51:00.794Z,80.00
2022-11-03T13:59:55.577Z,80.20
2022-11-03T14:05:52.835Z,80.30
2022-11-03T14:08:33.759Z,80.60
2022-11-03T14:11:32.615Z,80.90
2022-11-03T14:14:18.754Z,81.00
2022-11-03T14:16:59.277Z,81.20
2022-11-03T14:19:50.377Z,81.50
2022-11-03T14:22:46.867Z,81.80
2022-11-03T14:25:33.772Z,82.00
2022-11-03T14:28:26.045Z,82.40
2022-11-03T14:31:12.857Z,82.30
2022-11-03T14:33:52.846Z,82.20
2022-11-03T14:36:40.859Z,82.80
2022-11-03T14:39:20.877Z,83.10
2022-11-03T14:42:10.816Z,82.80
2022-11-03T14:47:44.850Z,83.50
2022-11-03T14:50:24.842Z,83.40
2022-11-03T14:53:12.047Z,83.40
2022-11-03T14:55:51.875Z,83.60
2022-11-03T14:58:38.805Z,84.00
2022-11-03T15:01:19.163Z,83.70
2022-11-03T15:04:06.046Z,83.50
2022-11-03T15:06:46.910Z,84.10
2022-11-03T15:09:33.867Z,84.20
2022-11-03T15:12:14.014Z,84.60
2022-11-03T15:15:00.851Z,84.90
2022-11-03T15:17:41.132Z,85.20
2022-11-03T15:20:27.845Z,85.30
2022-11-03T15:26:16.470Z,86.00
2022-11-03T15:29:02.886Z,86.40
2022-11-03T15:31:49.957Z,86.50
2022-11-03T15:34:29.936Z,86.50
2022-11-03T15:37:10.577Z,87.10
2022-11-03T15:39:59.677Z,87.00
2022-11-03T15:42:46.971Z,86.90
2022-11-03T15:45:27.379Z,86.80
2022-11-03T15:48:08.102Z,86.70
2022-11-03T15:50:54.975Z,86.90
2022-11-03T15:53:43.586Z,87.80
2022-11-03T15:56:23.163Z,87.80
2022-11-03T15:59:10.024Z,87.90
2022-11-03T16:01:50.097Z,88.20
2022-11-03T16:04:37.008Z,88.30
2022-11-03T16:07:16.977Z,88.20
2022-11-03T16:09:58.445Z,88.70
2022-11-03T16:12:45.014Z,89.00
2022-11-03T16:15:25.485Z,89.30
2022-11-03T16:18:11.984Z,89.50
2022-11-03T16:20:52.461Z,89.40
2022-11-03T16:23:38.976Z,89.70
2022-11-03T16:26:26.113Z,90.10
2022-11-03T16:29:06.041Z,90.20
2022-11-03T16:31:53.437Z,90.20
2022-11-03T16:34:33.008Z,90.20
2022-11-03T16:37:13.887Z,90.20
2022-11-03T16:40:01.022Z,90.60
2022-11-03T16:42:41.534Z,90.90
2022-11-03T16:45:37.745Z,91.10
2022-11-03T16:48:25.108Z,90.90
2022-11-03T16:51:06.052Z,91.20
2022-11-03T16:53:53.082Z,91.40
2022-11-03T16:56:33.177Z,91.40
2022-11-03T16:59:20.037Z,91.70
2022-11-03T17:02:00.463Z,91.70
2022-11-03T17:04:47.059Z,92.10
2022-11-03T17:07:27.194Z,92.30
2022-11-03T17:10:15.053Z,92.30
2022-11-03T17:12:56.098Z,92.50
2022-11-03T17:15:43.078Z,93.00
2022-11-03T17:18:30.096Z,93.30
2022-11-03T17:21:17.140Z,93.50
2022-11-03T17:24:13.069Z,93.40
2022-11-03T17:27:04.297Z,93.80
2022-11-03T17:29:57.184Z,94.00
2022-11-03T17:32:44.177Z,94.30
2022-11-03T17:35:39.014Z,94.50
2022-11-03T17:38:22.187Z,94.60
2022-11-03T17:41:09.286Z,95.00
2022-11-03T17:43:49.249Z,94.90
2022-11-03T17:46:36.150Z,95.20
2022-11-03T17:49:16.188Z,95.10
2022-11-03T17:52:03.081Z,95.20
2022-11-03T17:54:43.197Z,95.20
2022-11-03T17:57:31.142Z,95.20
2022-11-03T18:00:12.004Z,95.30
2022-11-03T18:02:59.151Z,95.30
2022-11-03T18:05:39.983Z,95.30
2022-11-03T18:08:27.194Z,95.80
2022-11-03T18:11:07.231Z,95.90
2022-11-03T18:13:57.193Z,96.00
2022-11-03T18:16:38.207Z,95.90
2022-11-03T18:19:25.184Z,96.30
2022-11-03T18:22:05.296Z,96.10
2022-11-03T18:24:52.183Z,96.50
2022-11-03T18:27:32.352Z,96.60
2022-11-03T18:30:23.318Z,96.60
2022-11-03T18:33:03.274Z,96.60
2022-11-03T18:35:50.563Z,96.60
2022-11-03T18:38:32.216Z,96.40
2022-11-03T18:41:43.252Z,96.10
2022-11-03T18:44:28.151Z,95.90
2022-11-03T18:47:17.188Z,95.80
2022-11-03T18:49:57.339Z,96.00
2022-11-03T18:52:54.303Z,96.30
2022-11-03T18:55:35.469Z,96.30
2022-11-03T18:58:28.314Z,96.60
2022-11-03T19:01:09.960Z,96.60
2022-11-03T19:03:56.233Z,96.60
2022-11-03T19:06:36.399Z,96.60
2022-11-03T19:09:28.292Z,96.60
2022-11-03T19:12:08.399Z,96.60
2022-11-03T19:14:56.247Z,96.60
2022-11-03T19:17:40.473Z,96.60
2022-11-03T19:20:27.386Z,96.60
2022-11-03T19:23:22.256Z,96.60
2022-11-03T19:26:09.308Z,96.60
2022-11-03T19:28:50.325Z,96.60
2022-11-03T19:31:41.321Z,96.60
2022-11-03T19:34:25.643Z,96.60
2022-11-03T19:37:13.401Z,96.60
2022-11-03T19:40:00.332Z,96.60
2022-11-03T19:42:47.336Z,96.60
2022-11-03T19:45:28.948Z,96.60
2022-11-03T19:48:25.215Z,96.60
2022-11-03T19:51:05.533Z,96.60
2022-11-03T19:53:53.666Z,96.60
2022-11-03T19:56:33.391Z,96.60
2022-11-03T19:59:22.503Z,96.60
2022-11-03T20:02:02.680Z,96.60
2022-11-03T20:04:53.377Z,96.60
2022-11-03T20:07:33.530Z,96.60
2022-11-03T20:10:23.375Z,96.60
2022-11-03T20:13:04.000Z,96.60
2022-11-03T20:15:50.794Z,96.60
2022-11-03T20:18:38.417Z,96.60
2022-11-03T20:21:20.553Z,96.60
2022-11-03T20:24:07.422Z,96.60
2022-11-03T20:26:54.445Z,96.60
2022-11-03T20:29:35.452Z,96.60
2022-11-03T20:32:22.399Z,96.60
2022-11-03T20:35:02.494Z,96.60
2022-11-03T20:37:56.445Z,96.60
2022-11-03T20:40:38.455Z,96.60
2022-11-03T20:43:32.433Z,96.60
2022-11-03T20:46:34.396Z,96.60
2022-11-03T20:49:15.200Z,96.60
2022-11-03T20:52:01.456Z,96.60
2022-11-03T20:54:50.997Z,96.60
2022-11-03T20:57:30.433Z,96.60
2022-11-03T21:00:27.497Z,96.60
2022-11-03T21:03:08.770Z,96.60
2022-11-03T21:05:55.402Z,96.60
2022-11-03T21:08:35.503Z,96.60
2022-11-03T21:11:31.466Z,96.60
2022-11-03T21:14:22.497Z,96.60
2022-11-03T21:17:28.468Z,96.60
2022-11-03T21:20:11.886Z,96.60
2022-11-03T21:22:58.468Z,96.60
2022-11-03T21:25:52.478Z,96.60
2022-11-03T21:28:32.968Z,96.60
2022-11-03T21:31:23.464Z,96.60
2022-11-03T21:34:03.948Z,96.60
2022-11-03T21:36:50.601Z,96.60
2022-11-03T21:39:39.256Z,96.60
2022-11-03T21:42:39.562Z,96.60
2022-11-03T21:45:26.740Z,96.60
2022-11-03T21:48:25.565Z,96.60
2022-11-03T21:51:12.580Z,96.60
2022-11-03T21:53:53.539Z,96.60
2022-11-03T21:56:34.018Z,96.60
2022-11-03T21:59:20.528Z,96.60
2022-11-03T22:02:08.653Z,96.60
2022-11-03T22:04:48.505Z,96.60
2022-11-03T22:07:38.613Z,96.60
2022-11-03T22:10:18.523Z,96.60
2022-11-03T22:13:05.844Z,96.60
2022-11-03T22:16:04.555Z,96.60
2022-11-03T22:18:51.607Z,96.60
2022-11-03T22:21:50.639Z,96.60
2022-11-03T22:25:02.577Z,96.60
2022-11-03T22:27:55.605Z,96.60
2022-11-03T22:31:05.031Z,96.60
2022-11-03T22:34:10.603Z,96.60
2022-11-03T22:36:57.563Z,96.60
2022-11-03T22:39:56.614Z,96.60
2022-11-03T22:43:01.656Z,96.60
2022-11-03T22:45:51.458Z,96.60
2022-11-03T22:48:32.656Z,96.60
2022-11-03T22:51:22.664Z,96.60
2022-11-03T22:54:17.678Z,96.60
2022-11-03T22:56:58.161Z,96.60
2022-11-03T22:59:44.616Z,96.60
2022-11-03T23:02:25.429Z,96.60
2022-11-03T23:05:12.654Z,96.60
2022-11-03T23:07:53.128Z,96.60
2022-11-03T23:10:39.628Z,96.60
2022-11-03T23:13:24.170Z,96.60
2022-11-03T23:16:10.637Z,96.60
2022-11-03T23:19:10.228Z,96.60
2022-11-03T23:21:58.667Z,96.60
2022-11-03T23:25:07.657Z,96.60
2022-11-03T23:27:59.716Z,96.60
2022-11-03T23:30:42.729Z,96.60
2022-11-03T23:33:29.681Z,96.60
2022-11-03T23:36:26.675Z,96.60
2022-11-03T23:39:14.985Z,96.60
2022-11-03T23:41:56.829Z,96.60
2022-11-03T23:45:02.775Z,96.60
2022-11-03T23:48:01.592Z,96.60
2022-11-03T23:50:49.724Z,96.60
2022-11-03T23:53:31.940Z,96.60
2022-11-03T23:56:39.802Z,96.60
2022-11-03T23:59:21.803Z,96.60
